PWSweather.com
Personal Weather Stations
Station Observations
DL5ARK
SonnebergDE

SonnebergDE

Lat: 50.34904861, Lon: 11.18112087

Elevation: 1214

Station Type: Selfmade

http://www.sumbarg.de

Latest ConditionsUpdated 12:47:26 PM GMT+01:01 Friday, Apr 19, 2019
Currently Today's Max Today's Min Today's Average
Temperature 69.4°F20.8°C 70.6°F21.4°C 47.1°F8.4°C 57.1°F13.9°C
Dew Point 46.7°F8.2°C 50.2°F10.1°C 41.3°F5.2°C 44.3°F6.8°C
Winds 5.0 mph NNW8.0 kmh NNW 16.2 mph -26.1 kmh - - 7.2 mph 11.6 kmh
Wind Gusts 5.0 mph8.0 kmh 16.3 mph26.2 kmh - -
Humidity 34% 60% 33% 50%
Pressure 30.38 in1028.8 mb 30.40 in1029.5 mb 30.34 in1027.4 mb -
Hour Temp Dew Point Humidity Winds Wind Gusts Pressure Precip Precip Rate Daily Precip Total
12:47 PM 69.4°F20.8°C 46.7°F8.2°C 34% 5.0 mph NNW8.0 kmh NNW 5.0 mph8.0 kmh 30.38 in1028.8 mb 0.00 in0.0 mm 0.00 in0.0 mm 0.00 in0.0 mm
12:44 PM 70.6°F21.4°C 49.1°F9.5°C 37% 10.0 mph SE16.1 kmh SE 10.0 mph16.1 kmh 30.38 in1028.8 mb 0.00 in0.0 mm 0.00 in0.0 mm 0.00 in0.0 mm
12:41 PM 69.2°F20.7°C 45.6°F7.6°C 33% 8.0 mph SE12.9 kmh SE 8.0 mph12.9 kmh 30.38 in1028.8 mb 0.00 in0.0 mm 0.00 in0.0 mm 0.00 in0.0 mm
12:38 PM 69.8°F21.0°C 46.1°F7.8°C 34% 10.1 mph SE16.3 kmh SE 10.1 mph16.3 kmh 30.38 in1028.8 mb 0.00 in0.0 mm 0.00 in0.0 mm 0.00 in0.0 mm
12:35 PM 69.5°F20.8°C 48.0°F8.9°C 37% 16.2 mph SE26.1 kmh SE 16.3 mph26.2 kmh 30.38 in1028.8 mb 0.00 in0.0 mm 0.00 in0.0 mm 0.00 in0.0 mm
12:32 PM 69.6°F20.9°C 47.6°F8.7°C 36% 9.3 mph SE15.0 kmh SE 9.4 mph15.1 kmh 30.38 in1028.8 mb 0.00 in0.0 mm 0.00 in0.0 mm 0.00 in0.0 mm
12:29 PM 69.6°F20.9°C 47.9°F8.8°C 36% 6.9 mph NNW11.1 kmh NNW 6.9 mph11.1 kmh 30.38 in1028.8 mb 0.00 in0.0 mm 0.00 in0.0 mm 0.00 in0.0 mm
12:26 PM 68.9°F20.5°C 46.4°F8.0°C 34% 8.1 mph NNW13.0 kmh NNW 8.2 mph13.2 kmh 30.38 in1028.8 mb 0.00 in0.0 mm 0.00 in0.0 mm 0.00 in0.0 mm
12:23 PM 68.6°F20.3°C 46.9°F8.3°C 35% 8.7 mph SE14.0 kmh SE 8.8 mph14.2 kmh 30.38 in1028.8 mb 0.00 in0.0 mm 0.00 in0.0 mm 0.00 in0.0 mm
12:20 PM 68.6°F20.3°C 48.1°F8.9°C 36% 13.4 mph NNW21.6 kmh NNW 13.5 mph21.7 kmh 30.38 in1028.8 mb 0.00 in0.0 mm 0.00 in0.0 mm 0.00 in0.0 mm
12:17 PM 69.8°F21.0°C 49.2°F9.6°C 37% 6.5 mph SE10.5 kmh SE 6.5 mph10.5 kmh 30.38 in1028.8 mb 0.00 in0.0 mm 0.00 in0.0 mm 0.00 in0.0 mm
12:14 PM 69.2°F20.7°C 49.8°F9.9°C 38% 1.2 mph SSW1.9 kmh SSW 1.2 mph1.9 kmh 30.38 in1028.8 mb 0.00 in0.0 mm 0.00 in0.0 mm 0.00 in0.0 mm
12:11 PM 69.2°F20.7°C 48.1°F8.9°C 36% 5.7 mph S9.2 kmh S 5.7 mph9.2 kmh 30.38 in1028.8 mb 0.00 in0.0 mm 0.00 in0.0 mm 0.00 in0.0 mm
12:08 PM 69.5°F20.8°C 48.4°F9.1°C 37% 5.0 mph SSE8.0 kmh SSE 5.0 mph8.0 kmh 30.38 in1028.8 mb 0.00 in0.0 mm 0.00 in0.0 mm 0.00 in0.0 mm
12:05 PM 69.2°F20.7°C 48.3°F9.1°C 36% 6.5 mph SSE10.5 kmh SSE 6.6 mph10.6 kmh 30.38 in1028.8 mb 0.00 in0.0 mm 0.00 in0.0 mm 0.00 in0.0 mm
12:02 PM 68.9°F20.5°C 47.9°F8.8°C 35% 6.7 mph NNW10.8 kmh NNW 6.7 mph10.8 kmh 30.38 in1028.8 mb 0.00 in0.0 mm 0.00 in0.0 mm 0.00 in0.0 mm
11:59 AM 68.9°F20.5°C 49.0°F9.4°C 37% 4.4 mph SSE7.1 kmh SSE 4.5 mph7.2 kmh 30.38 in1028.8 mb 0.00 in0.0 mm 0.00 in0.0 mm 0.00 in0.0 mm
11:56 AM 68.3°F20.2°C 48.6°F9.2°C 37% 5.2 mph S8.4 kmh S 5.3 mph8.5 kmh 30.38 in1028.8 mb 0.00 in0.0 mm 0.00 in0.0 mm 0.00 in0.0 mm
11:53 AM 68.5°F20.3°C 48.4°F9.1°C 36% 5.3 mph S8.5 kmh S 5.3 mph8.5 kmh 30.38 in1028.8 mb 0.00 in0.0 mm 0.00 in0.0 mm 0.00 in0.0 mm
11:50 AM 69.0°F20.6°C 50.2°F10.1°C 38% 8.5 mph S13.7 kmh S 8.6 mph13.8 kmh 30.38 in1028.8 mb 0.00 in0.0 mm 0.00 in0.0 mm 0.00 in0.0 mm
11:47 AM 68.6°F20.3°C 49.1°F9.5°C 37% 3.2 mph S5.1 kmh S 3.2 mph5.1 kmh 30.38 in1028.8 mb 0.00 in0.0 mm 0.00 in0.0 mm 0.00 in0.0 mm
11:44 AM 69.2°F20.7°C 50.2°F10.1°C 40% 6.1 mph SSE9.8 kmh SSE 6.1 mph9.8 kmh 30.38 in1028.8 mb 0.00 in0.0 mm 0.00 in0.0 mm 0.00 in0.0 mm
11:41 AM 67.9°F19.9°C 46.9°F8.3°C 37% 6.9 mph NNW11.1 kmh NNW 6.9 mph11.1 kmh 30.38 in1028.8 mb 0.00 in0.0 mm 0.00 in0.0 mm 0.00 in0.0 mm
11:38 AM 68.2°F20.1°C 48.0°F8.9°C 38% 7.7 mph NNW12.4 kmh NNW 7.7 mph12.4 kmh 30.39 in1029.1 mb 0.00 in0.0 mm 0.00 in0.0 mm 0.00 in0.0 mm
11:35 AM 67.8°F19.9°C 47.4°F8.6°C 37% 5.0 mph NNW8.0 kmh NNW 5.0 mph8.0 kmh 30.38 in1028.8 mb 0.00 in0.0 mm 0.00 in0.0 mm 0.00 in0.0 mm
11:32 AM 67.9°F19.9°C 47.5°F8.6°C 37% 6.8 mph NNW10.9 kmh NNW 6.9 mph11.1 kmh 30.39 in1029.1 mb 0.00 in0.0 mm 0.00 in0.0 mm 0.00 in0.0 mm
11:29 AM 67.4°F19.7°C 44.9°F7.2°C 35% 6.9 mph S11.1 kmh S 7.0 mph11.3 kmh 30.39 in1029.1 mb 0.00 in0.0 mm 0.00 in0.0 mm 0.00 in0.0 mm
11:26 AM 67.6°F19.8°C 45.1°F7.3°C 35% 9.2 mph NNW14.8 kmh NNW 9.2 mph14.8 kmh 30.39 in1029.1 mb 0.00 in0.0 mm 0.00 in0.0 mm 0.00 in0.0 mm
11:23 AM 68.0°F20.0°C 46.8°F8.2°C 37% 9.9 mph NNW15.9 kmh NNW 10.0 mph16.1 kmh 30.39 in1029.1 mb 0.00 in0.0 mm 0.00 in0.0 mm 0.00 in0.0 mm
11:20 AM 68.0°F20.0°C 46.9°F8.3°C 38% 9.3 mph SSE15.0 kmh SSE 9.4 mph15.1 kmh 30.40 in1029.5 mb 0.00 in0.0 mm 0.00 in0.0 mm 0.00 in0.0 mm
11:17 AM 68.1°F20.1°C 46.5°F8.1°C 37% 8.7 mph NNW14.0 kmh NNW 8.8 mph14.2 kmh 30.39 in1029.1 mb 0.00 in0.0 mm 0.00 in0.0 mm 0.00 in0.0 mm
11:14 AM 68.0°F20.0°C 45.8°F7.7°C 37% 9.9 mph SE15.9 kmh SE 10.0 mph16.1 kmh 30.39 in1029.1 mb 0.00 in0.0 mm 0.00 in0.0 mm 0.00 in0.0 mm
11:11 AM 67.9°F19.9°C 46.4°F8.0°C 38% 11.5 mph NNW18.5 kmh NNW 11.6 mph18.7 kmh 30.38 in1028.8 mb 0.00 in0.0 mm 0.00 in0.0 mm 0.00 in0.0 mm
11:08 AM 67.3°F19.6°C 46.5°F8.1°C 38% 10.5 mph SE16.9 kmh SE 10.6 mph17.1 kmh 30.39 in1029.1 mb 0.00 in0.0 mm 0.00 in0.0 mm 0.00 in0.0 mm
11:05 AM 67.8°F19.9°C 46.6°F8.1°C 38% 13.5 mph NNW21.7 kmh NNW 13.7 mph22.0 kmh 30.39 in1029.1 mb 0.00 in0.0 mm 0.00 in0.0 mm 0.00 in0.0 mm
11:02 AM 67.2°F19.6°C 46.8°F8.2°C 39% 15.7 mph ESE25.3 kmh ESE 15.7 mph25.3 kmh 30.39 in1029.1 mb 0.00 in0.0 mm 0.00 in0.0 mm 0.00 in0.0 mm
10:59 AM 67.1°F19.5°C 47.4°F8.6°C 39% 13.9 mph NNW22.4 kmh NNW 14.1 mph22.7 kmh 30.39 in1029.1 mb 0.00 in0.0 mm 0.00 in0.0 mm 0.00 in0.0 mm
10:56 AM 67.4°F19.7°C 47.6°F8.7°C 39% 6.8 mph ESE10.9 kmh ESE 6.9 mph11.1 kmh 30.39 in1029.1 mb 0.00 in0.0 mm 0.00 in0.0 mm 0.00 in0.0 mm
10:53 AM 67.7°F19.8°C 47.2°F8.4°C 39% 10.0 mph SE16.1 kmh SE 10.1 mph16.3 kmh 30.39 in1029.1 mb 0.00 in0.0 mm 0.00 in0.0 mm 0.00 in0.0 mm
10:50 AM 67.4°F19.7°C 47.7°F8.7°C 39% 9.7 mph SE15.6 kmh SE 9.8 mph15.8 kmh 30.40 in1029.5 mb 0.00 in0.0 mm 0.00 in0.0 mm 0.00 in0.0 mm
10:47 AM 67.1°F19.5°C 47.5°F8.6°C 39% 7.5 mph S12.1 kmh S 7.6 mph12.2 kmh 30.39 in1029.1 mb 0.00 in0.0 mm 0.00 in0.0 mm 0.00 in0.0 mm
10:44 AM 66.4°F19.1°C 46.9°F8.3°C 39% 5.7 mph SSW9.2 kmh SSW 5.7 mph9.2 kmh 30.39 in1029.1 mb 0.00 in0.0 mm 0.00 in0.0 mm 0.00 in0.0 mm
10:41 AM 67.3°F19.6°C 48.5°F9.2°C 41% 4.4 mph SSE7.1 kmh SSE 4.4 mph7.1 kmh 30.40 in1029.5 mb 0.00 in0.0 mm 0.00 in0.0 mm 0.00 in0.0 mm
10:38 AM 67.3°F19.6°C 47.9°F8.8°C 40% 2.8 mph NNW4.5 kmh NNW 2.9 mph4.7 kmh 30.40 in1029.5 mb 0.00 in0.0 mm 0.00 in0.0 mm 0.00 in0.0 mm
10:35 AM 67.2°F19.6°C 47.1°F8.4°C 40% 4.4 mph SSE7.1 kmh SSE 4.4 mph7.1 kmh 30.40 in1029.5 mb 0.00 in0.0 mm 0.00 in0.0 mm 0.00 in0.0 mm
10:32 AM 67.2°F19.6°C 47.0°F8.3°C 40% 10.5 mph SSE16.9 kmh SSE 10.6 mph17.1 kmh 30.40 in1029.5 mb 0.00 in0.0 mm 0.00 in0.0 mm 0.00 in0.0 mm
10:29 AM 67.4°F19.7°C 47.6°F8.7°C 41% 7.3 mph SSE11.7 kmh SSE 7.3 mph11.7 kmh 30.40 in1029.5 mb 0.00 in0.0 mm 0.00 in0.0 mm 0.00 in0.0 mm
10:26 AM 67.3°F19.6°C 48.0°F8.9°C 42% 9.5 mph ESE15.3 kmh ESE 9.6 mph15.4 kmh 30.40 in1029.5 mb 0.00 in0.0 mm 0.00 in0.0 mm 0.00 in0.0 mm
10:23 AM 67.0°F19.4°C 47.2°F8.4°C 41% 10.7 mph NNW17.2 kmh NNW 10.8 mph17.4 kmh 30.40 in1029.5 mb 0.00 in0.0 mm 0.00 in0.0 mm 0.00 in0.0 mm
10:20 AM 66.9°F19.4°C 47.0°F8.3°C 41% 11.7 mph SE18.8 kmh SE 11.8 mph19.0 kmh 30.40 in1029.5 mb 0.00 in0.0 mm 0.00 in0.0 mm 0.00 in0.0 mm
10:17 AM 66.8°F19.3°C 47.6°F8.7°C 42% 10.1 mph SE16.3 kmh SE 10.1 mph16.3 kmh 30.40 in1029.5 mb 0.00 in0.0 mm 0.00 in0.0 mm 0.00 in0.0 mm
10:14 AM 66.5°F19.2°C 46.5°F8.1°C 40% 8.5 mph SE13.7 kmh SE 8.5 mph13.7 kmh 30.40 in1029.5 mb 0.00 in0.0 mm 0.00 in0.0 mm 0.00 in0.0 mm
10:11 AM 66.5°F19.2°C 46.9°F8.3°C 42% 10.1 mph SE16.3 kmh SE 10.1 mph16.3 kmh 30.40 in1029.5 mb 0.00 in0.0 mm 0.00 in0.0 mm 0.00 in0.0 mm
10:08 AM 66.2°F19.0°C 46.4°F8.0°C 42% 9.0 mph SE14.5 kmh SE 9.1 mph14.6 kmh 30.40 in1029.5 mb 0.00 in0.0 mm 0.00 in0.0 mm 0.00 in0.0 mm
10:05 AM 66.1°F18.9°C 46.5°F8.1°C 42% 14.2 mph SE22.9 kmh SE 14.3 mph23.0 kmh 30.40 in1029.5 mb 0.00 in0.0 mm 0.00 in0.0 mm 0.00 in0.0 mm
10:02 AM 65.9°F18.8°C 46.9°F8.3°C 43% 8.3 mph SSE13.4 kmh SSE 8.5 mph13.7 kmh 30.40 in1029.5 mb 0.00 in0.0 mm 0.00 in0.0 mm 0.00 in0.0 mm
09:59 AM 66.2°F19.0°C 46.3°F7.9°C 42% 15.3 mph SE24.6 kmh SE 15.5 mph24.9 kmh 30.40 in1029.5 mb 0.00 in0.0 mm 0.00 in0.0 mm 0.00 in0.0 mm
09:56 AM 66.0°F18.9°C 47.1°F8.4°C 43% 7.2 mph SSE11.6 kmh SSE 7.3 mph11.7 kmh 30.40 in1029.5 mb 0.00 in0.0 mm 0.00 in0.0 mm 0.00 in0.0 mm
09:53 AM 66.5°F19.2°C 46.8°F8.2°C 43% 11.8 mph SE19.0 kmh SE 11.9 mph19.2 kmh 30.40 in1029.5 mb 0.00 in0.0 mm 0.00 in0.0 mm 0.00 in0.0 mm
09:50 AM 65.4°F18.6°C 46.6°F8.1°C 43% 11.2 mph SE18.0 kmh SE 11.2 mph18.0 kmh 30.40 in1029.5 mb 0.00 in0.0 mm 0.00 in0.0 mm 0.00 in0.0 mm
09:47 AM 65.4°F18.6°C 46.2°F7.9°C 42% 12.9 mph SE20.8 kmh SE 13.0 mph20.9 kmh 30.40 in1029.5 mb 0.00 in0.0 mm 0.00 in0.0 mm 0.00 in0.0 mm
09:44 AM 65.9°F18.8°C 46.0°F7.8°C 42% 8.9 mph SSE14.3 kmh SSE 8.9 mph14.3 kmh 30.40 in1029.5 mb 0.00 in0.0 mm 0.00 in0.0 mm 0.00 in0.0 mm
09:41 AM 65.9°F18.8°C 46.8°F8.2°C 43% 10.5 mph SE16.9 kmh SE 10.6 mph17.1 kmh 30.40 in1029.5 mb 0.00 in0.0 mm 0.00 in0.0 mm 0.00 in0.0 mm
09:38 AM 65.5°F18.6°C 47.0°F8.3°C 44% 8.3 mph SE13.4 kmh SE 8.4 mph13.5 kmh 30.40 in1029.5 mb 0.00 in0.0 mm 0.00 in0.0 mm 0.00 in0.0 mm
09:35 AM 64.5°F18.1°C 46.7°F8.2°C 44% 13.3 mph SE21.4 kmh SE 13.5 mph21.7 kmh 30.40 in1029.5 mb 0.00 in0.0 mm 0.00 in0.0 mm 0.00 in0.0 mm
09:32 AM 64.7°F18.2°C 45.6°F7.6°C 42% 6.1 mph NNW9.8 kmh NNW 6.1 mph9.8 kmh 30.40 in1029.5 mb 0.00 in0.0 mm 0.00 in0.0 mm 0.00 in0.0 mm
09:29 AM 65.1°F18.4°C 46.5°F8.1°C 43% 13.7 mph ESE22.0 kmh ESE 13.9 mph22.4 kmh 30.40 in1029.5 mb 0.00 in0.0 mm 0.00 in0.0 mm 0.00 in0.0 mm
09:26 AM 65.2°F18.4°C 47.4°F8.6°C 45% 8.4 mph NNW13.5 kmh NNW 8.4 mph13.5 kmh 30.40 in1029.5 mb 0.00 in0.0 mm 0.00 in0.0 mm 0.00 in0.0 mm
09:23 AM 65.2°F18.4°C 48.2°F9.0°C 46% 13.1 mph SE21.1 kmh SE 13.1 mph21.1 kmh 30.40 in1029.5 mb 0.00 in0.0 mm 0.00 in0.0 mm 0.00 in0.0 mm
09:20 AM 65.1°F18.4°C 47.7°F8.7°C 45% 5.6 mph SSE9.0 kmh SSE 5.6 mph9.0 kmh 30.40 in1029.5 mb 0.00 in0.0 mm 0.00 in0.0 mm 0.00 in0.0 mm
09:17 AM 64.6°F18.1°C 46.7°F8.2°C 44% 8.3 mph NNW13.4 kmh NNW 8.4 mph13.5 kmh 30.40 in1029.5 mb 0.00 in0.0 mm 0.00 in0.0 mm 0.00 in0.0 mm
09:14 AM 64.2°F17.9°C 46.3°F7.9°C 43% 10.8 mph NNW17.4 kmh NNW 10.8 mph17.4 kmh 30.40 in1029.5 mb 0.00 in0.0 mm 0.00 in0.0 mm 0.00 in0.0 mm
09:11 AM 64.4°F18.0°C 47.2°F8.4°C 44% 7.9 mph SE12.7 kmh SE 7.9 mph12.7 kmh 30.40 in1029.5 mb 0.00 in0.0 mm 0.00 in0.0 mm 0.00 in0.0 mm
09:08 AM 64.1°F17.8°C 46.4°F8.0°C 43% 9.6 mph SE15.4 kmh SE 9.7 mph15.6 kmh 30.40 in1029.5 mb 0.00 in0.0 mm 0.00 in0.0 mm 0.00 in0.0 mm
09:05 AM 64.3°F17.9°C 46.8°F8.2°C 44% 6.9 mph NNW11.1 kmh NNW 7.0 mph11.3 kmh 30.40 in1029.5 mb 0.00 in0.0 mm 0.00 in0.0 mm 0.00 in0.0 mm
09:02 AM 64.3°F17.9°C 47.5°F8.6°C 46% 5.7 mph SE9.2 kmh SE 5.8 mph9.3 kmh 30.40 in1029.5 mb 0.00 in0.0 mm 0.00 in0.0 mm 0.00 in0.0 mm
08:59 AM 63.4°F17.4°C 45.6°F7.6°C 44% 8.8 mph SE14.2 kmh SE 8.8 mph14.2 kmh 30.40 in1029.5 mb 0.00 in0.0 mm 0.00 in0.0 mm 0.00 in0.0 mm
08:56 AM 63.6°F17.6°C 46.3°F7.9°C 45% 9.9 mph SSE15.9 kmh SSE 9.9 mph15.9 kmh 30.40 in1029.5 mb 0.00 in0.0 mm 0.00 in0.0 mm 0.00 in0.0 mm
08:53 AM 63.5°F17.5°C 46.0°F7.8°C 45% 10.7 mph SE17.2 kmh SE 10.7 mph17.2 kmh 30.40 in1029.5 mb 0.00 in0.0 mm 0.00 in0.0 mm 0.00 in0.0 mm
08:50 AM 62.9°F17.2°C 45.9°F7.7°C 45% 10.0 mph SSE16.1 kmh SSE 10.1 mph16.3 kmh 30.40 in1029.5 mb 0.00 in0.0 mm 0.00 in0.0 mm 0.00 in0.0 mm
08:47 AM 63.3°F17.4°C 46.6°F8.1°C 46% 9.8 mph SE15.8 kmh SE 9.8 mph15.8 kmh 30.40 in1029.5 mb 0.00 in0.0 mm 0.00 in0.0 mm 0.00 in0.0 mm
08:44 AM 62.9°F17.2°C 46.1°F7.8°C 45% 7.5 mph SSE12.1 kmh SSE 7.6 mph12.2 kmh 30.40 in1029.5 mb 0.00 in0.0 mm 0.00 in0.0 mm 0.00 in0.0 mm
08:41 AM 62.9°F17.2°C 45.9°F7.7°C 46% 8.1 mph S13.0 kmh S 8.2 mph13.2 kmh 30.40 in1029.5 mb 0.00 in0.0 mm 0.00 in0.0 mm 0.00 in0.0 mm
08:38 AM 62.8°F17.1°C 45.7°F7.6°C 46% 8.3 mph SSE13.4 kmh SSE 8.3 mph13.4 kmh 30.40 in1029.5 mb 0.00 in0.0 mm 0.00 in0.0 mm 0.00 in0.0 mm
08:35 AM 63.2°F17.3°C 46.9°F8.3°C 48% 6.5 mph SE10.5 kmh SE 6.5 mph10.5 kmh 30.39 in1029.1 mb 0.00 in0.0 mm 0.00 in0.0 mm 0.00 in0.0 mm
08:32 AM 62.7°F17.1°C 46.6°F8.1°C 48% 8.3 mph SSE13.4 kmh SSE 8.3 mph13.4 kmh 30.40 in1029.5 mb 0.00 in0.0 mm 0.00 in0.0 mm 0.00 in0.0 mm
08:29 AM 62.6°F17.0°C 46.0°F7.8°C 47% 7.3 mph SSE11.7 kmh SSE 7.4 mph11.9 kmh 30.39 in1029.1 mb 0.00 in0.0 mm 0.00 in0.0 mm 0.00 in0.0 mm
08:26 AM 62.0°F16.7°C 45.2°F7.3°C 47% 8.4 mph NNW13.5 kmh NNW 8.5 mph13.7 kmh 30.38 in1028.8 mb 0.00 in0.0 mm 0.00 in0.0 mm 0.00 in0.0 mm
08:23 AM 61.9°F16.6°C 45.1°F7.3°C 46% 6.4 mph SSE10.3 kmh SSE 6.4 mph10.3 kmh 30.39 in1029.1 mb 0.00 in0.0 mm 0.00 in0.0 mm 0.00 in0.0 mm
08:20 AM 61.8°F16.6°C 45.3°F7.4°C 47% 9.2 mph SE14.8 kmh SE 9.2 mph14.8 kmh 30.39 in1029.1 mb 0.00 in0.0 mm 0.00 in0.0 mm 0.00 in0.0 mm
08:17 AM 62.0°F16.7°C 46.4°F8.0°C 49% 4.9 mph SE7.9 kmh SE 4.9 mph7.9 kmh 30.39 in1029.1 mb 0.00 in0.0 mm 0.00 in0.0 mm 0.00 in0.0 mm
08:14 AM 61.5°F16.4°C 45.3°F7.4°C 48% 7.8 mph S12.6 kmh S 7.9 mph12.7 kmh 30.39 in1029.1 mb 0.00 in0.0 mm 0.00 in0.0 mm 0.00 in0.0 mm
08:11 AM 61.6°F16.4°C 47.1°F8.4°C 51% 11.1 mph NNW17.9 kmh NNW 11.2 mph18.0 kmh 30.38 in1028.8 mb 0.00 in0.0 mm 0.00 in0.0 mm 0.00 in0.0 mm
08:08 AM 62.0°F16.7°C 46.3°F7.9°C 49% 9.5 mph SE15.3 kmh SE 9.6 mph15.4 kmh 30.38 in1028.8 mb 0.00 in0.0 mm 0.00 in0.0 mm 0.00 in0.0 mm
08:05 AM 62.0°F16.7°C 46.7°F8.2°C 51% 5.7 mph SSE9.2 kmh SSE 5.7 mph9.2 kmh 30.38 in1028.8 mb 0.00 in0.0 mm 0.00 in0.0 mm 0.00 in0.0 mm
08:02 AM 61.6°F16.4°C 46.0°F7.8°C 50% 6.8 mph SE10.9 kmh SE 6.8 mph10.9 kmh 30.38 in1028.8 mb 0.00 in0.0 mm 0.00 in0.0 mm 0.00 in0.0 mm
07:59 AM 61.4°F16.3°C 46.1°F7.8°C 50% 5.6 mph SE9.0 kmh SE 5.6 mph9.0 kmh 30.38 in1028.8 mb 0.00 in0.0 mm 0.00 in0.0 mm 0.00 in0.0 mm
07:56 AM 61.4°F16.3°C 46.3°F7.9°C 51% 8.9 mph NNW14.3 kmh NNW 9.0 mph14.5 kmh 30.38 in1028.8 mb 0.00 in0.0 mm 0.00 in0.0 mm 0.00 in0.0 mm
07:53 AM 61.1°F16.2°C 45.9°F7.7°C 51% 8.5 mph SE13.7 kmh SE 8.5 mph13.7 kmh 30.38 in1028.8 mb 0.00 in0.0 mm 0.00 in0.0 mm 0.00 in0.0 mm
07:50 AM 60.9°F16.1°C 46.7°F8.2°C 53% 5.3 mph SE8.5 kmh SE 5.3 mph8.5 kmh 30.38 in1028.8 mb 0.00 in0.0 mm 0.00 in0.0 mm 0.00 in0.0 mm
07:47 AM 60.7°F15.9°C 46.1°F7.8°C 52% 8.5 mph SE13.7 kmh SE 8.6 mph13.8 kmh 30.38 in1028.8 mb 0.00 in0.0 mm 0.00 in0.0 mm 0.00 in0.0 mm
07:44 AM 60.4°F15.8°C 45.7°F7.6°C 52% 7.7 mph SE12.4 kmh SE 7.7 mph12.4 kmh 30.38 in1028.8 mb 0.00 in0.0 mm 0.00 in0.0 mm 0.00 in0.0 mm
07:41 AM 60.2°F15.7°C 46.4°F8.0°C 54% 6.1 mph SE9.8 kmh SE 6.1 mph9.8 kmh 30.38 in1028.8 mb 0.00 in0.0 mm 0.00 in0.0 mm 0.00 in0.0 mm
07:38 AM 59.2°F15.1°C 44.7°F7.1°C 51% 8.7 mph SE14.0 kmh SE 8.8 mph14.2 kmh 30.38 in1028.8 mb 0.00 in0.0 mm 0.00 in0.0 mm 0.00 in0.0 mm
07:35 AM 58.8°F14.9°C 45.3°F7.4°C 53% 9.1 mph SE14.6 kmh SE 9.2 mph14.8 kmh 30.38 in1028.8 mb 0.00 in0.0 mm 0.00 in0.0 mm 0.00 in0.0 mm
07:32 AM 58.7°F14.8°C 46.3°F7.9°C 55% 8.9 mph SE14.3 kmh SE 8.9 mph14.3 kmh 30.38 in1028.8 mb 0.00 in0.0 mm 0.00 in0.0 mm 0.00 in0.0 mm
07:29 AM 58.4°F14.7°C 45.5°F7.5°C 53% 10.7 mph ESE17.2 kmh ESE 10.8 mph17.4 kmh 30.38 in1028.8 mb 0.00 in0.0 mm 0.00 in0.0 mm 0.00 in0.0 mm
07:26 AM 58.1°F14.5°C 44.8°F7.1°C 53% 8.7 mph NNW14.0 kmh NNW 8.8 mph14.2 kmh 30.38 in1028.8 mb 0.00 in0.0 mm 0.00 in0.0 mm 0.00 in0.0 mm
07:23 AM 57.7°F14.3°C 44.6°F7.0°C 53% 8.5 mph SE13.7 kmh SE 8.6 mph13.8 kmh 30.38 in1028.8 mb 0.00 in0.0 mm 0.00 in0.0 mm 0.00 in0.0 mm
07:20 AM 57.8°F14.3°C 44.5°F6.9°C 53% 9.1 mph SSE14.6 kmh SSE 9.2 mph14.8 kmh 30.38 in1028.8 mb 0.00 in0.0 mm 0.00 in0.0 mm 0.00 in0.0 mm
07:17 AM 57.8°F14.3°C 45.3°F7.4°C 54% 7.5 mph SE12.1 kmh SE 7.6 mph12.2 kmh 30.38 in1028.8 mb 0.00 in0.0 mm 0.00 in0.0 mm 0.00 in0.0 mm
07:14 AM 57.7°F14.3°C 44.8°F7.1°C 54% 8.0 mph SE12.9 kmh SE 8.0 mph12.9 kmh 30.38 in1028.8 mb 0.00 in0.0 mm 0.00 in0.0 mm 0.00 in0.0 mm
07:11 AM 57.4°F14.1°C 44.7°F7.1°C 54% 8.7 mph SE14.0 kmh SE 8.8 mph14.2 kmh 30.38 in1028.8 mb 0.00 in0.0 mm 0.00 in0.0 mm 0.00 in0.0 mm
07:08 AM 57.3°F14.1°C 45.0°F7.2°C 55% 9.2 mph SE14.8 kmh SE 9.3 mph15.0 kmh 30.38 in1028.8 mb 0.00 in0.0 mm 0.00 in0.0 mm 0.00 in0.0 mm
07:05 AM 57.3°F14.1°C 44.3°F6.8°C 53% 10.8 mph SE17.4 kmh SE 10.9 mph17.5 kmh 30.37 in1028.4 mb 0.00 in0.0 mm 0.00 in0.0 mm 0.00 in0.0 mm
07:02 AM 57.3°F14.1°C 44.6°F7.0°C 54% 10.7 mph NNW17.2 kmh NNW 10.7 mph17.2 kmh 30.38 in1028.8 mb 0.00 in0.0 mm 0.00 in0.0 mm 0.00 in0.0 mm
06:59 AM 57.3°F14.1°C 44.7°F7.1°C 54% 7.7 mph SE12.4 kmh SE 7.7 mph12.4 kmh 30.38 in1028.8 mb 0.00 in0.0 mm 0.00 in0.0 mm 0.00 in0.0 mm
06:56 AM 57.2°F14.0°C 43.7°F6.5°C 53% 7.6 mph SE12.2 kmh SE 7.6 mph12.2 kmh 30.37 in1028.4 mb 0.00 in0.0 mm 0.00 in0.0 mm 0.00 in0.0 mm
06:53 AM 57.0°F13.9°C 44.0°F6.7°C 53% 8.1 mph SE13.0 kmh SE 8.1 mph13.0 kmh 30.37 in1028.4 mb 0.00 in0.0 mm 0.00 in0.0 mm 0.00 in0.0 mm
06:50 AM 56.9°F13.8°C 43.5°F6.4°C 53% 9.3 mph NNW15.0 kmh NNW 9.4 mph15.1 kmh 30.37 in1028.4 mb 0.00 in0.0 mm 0.00 in0.0 mm 0.00 in0.0 mm
06:47 AM 56.6°F13.7°C 44.2°F6.8°C 54% 8.7 mph SE14.0 kmh SE 8.8 mph14.2 kmh 30.37 in1028.4 mb 0.00 in0.0 mm 0.00 in0.0 mm 0.00 in0.0 mm
06:44 AM 56.6°F13.7°C 44.3°F6.8°C 54% 7.3 mph SE11.7 kmh SE 7.3 mph11.7 kmh 30.37 in1028.4 mb 0.00 in0.0 mm 0.00 in0.0 mm 0.00 in0.0 mm
06:41 AM 56.4°F13.6°C 43.6°F6.4°C 54% 11.9 mph SE19.2 kmh SE 12.0 mph19.3 kmh 30.37 in1028.4 mb 0.00 in0.0 mm 0.00 in0.0 mm 0.00 in0.0 mm
06:38 AM 56.3°F13.5°C 43.8°F6.6°C 54% 10.8 mph SE17.4 kmh SE 10.9 mph17.5 kmh 30.37 in1028.4 mb 0.00 in0.0 mm 0.00 in0.0 mm 0.00 in0.0 mm
06:35 AM 56.1°F13.4°C 43.3°F6.3°C 54% 9.3 mph SE15.0 kmh SE 9.4 mph15.1 kmh 30.37 in1028.4 mb 0.00 in0.0 mm 0.00 in0.0 mm 0.00 in0.0 mm
06:32 AM 55.7°F13.2°C 43.5°F6.4°C 54% 13.7 mph NNW22.0 kmh NNW 13.7 mph22.0 kmh 30.37 in1028.4 mb 0.00 in0.0 mm 0.00 in0.0 mm 0.00 in0.0 mm
06:29 AM 55.6°F13.1°C 43.7°F6.5°C 54% 10.3 mph NNW16.6 kmh NNW 10.4 mph16.7 kmh 30.37 in1028.4 mb 0.00 in0.0 mm 0.00 in0.0 mm 0.00 in0.0 mm
06:26 AM 55.3°F12.9°C 43.3°F6.3°C 55% 12.0 mph SE19.3 kmh SE 12.0 mph19.3 kmh 30.37 in1028.4 mb 0.00 in0.0 mm 0.00 in0.0 mm 0.00 in0.0 mm
06:23 AM 55.2°F12.9°C 43.7°F6.5°C 55% 9.5 mph SE15.3 kmh SE 9.5 mph15.3 kmh 30.37 in1028.4 mb 0.00 in0.0 mm 0.00 in0.0 mm 0.00 in0.0 mm
06:20 AM 54.6°F12.6°C 43.7°F6.5°C 55% 8.8 mph NNW14.2 kmh NNW 8.8 mph14.2 kmh 30.37 in1028.4 mb 0.00 in0.0 mm 0.00 in0.0 mm 0.00 in0.0 mm
06:17 AM 54.4°F12.4°C 43.3°F6.3°C 55% 9.2 mph SE14.8 kmh SE 9.3 mph15.0 kmh 30.37 in1028.4 mb 0.00 in0.0 mm 0.00 in0.0 mm 0.00 in0.0 mm
06:14 AM 54.2°F12.3°C 42.8°F6.0°C 54% 13.2 mph ESE21.2 kmh ESE 13.3 mph21.4 kmh 30.37 in1028.4 mb 0.00 in0.0 mm 0.00 in0.0 mm 0.00 in0.0 mm
06:11 AM 54.1°F12.3°C 43.7°F6.5°C 56% 7.3 mph NNW11.7 kmh NNW 7.4 mph11.9 kmh 30.36 in1028.1 mb 0.00 in0.0 mm 0.00 in0.0 mm 0.00 in0.0 mm
06:08 AM 53.3°F11.8°C 43.1°F6.2°C 55% 8.5 mph SE13.7 kmh SE 8.5 mph13.7 kmh 30.36 in1028.1 mb 0.00 in0.0 mm 0.00 in0.0 mm 0.00 in0.0 mm
06:05 AM 53.2°F11.8°C 43.1°F6.2°C 56% 7.2 mph SSE11.6 kmh SSE 7.2 mph11.6 kmh 30.36 in1028.1 mb 0.00 in0.0 mm 0.00 in0.0 mm 0.00 in0.0 mm
06:02 AM 52.8°F11.6°C 43.3°F6.3°C 56% 5.4 mph SE8.7 kmh SE 5.4 mph8.7 kmh 30.36 in1028.1 mb 0.00 in0.0 mm 0.00 in0.0 mm 0.00 in0.0 mm
05:59 AM 51.9°F11.1°C 42.9°F6.1°C 56% 9.2 mph SE14.8 kmh SE 9.3 mph15.0 kmh 30.36 in1028.1 mb 0.00 in0.0 mm 0.00 in0.0 mm 0.00 in0.0 mm
05:56 AM 51.6°F10.9°C 42.9°F6.1°C 57% 7.0 mph SE11.3 kmh SE 7.1 mph11.4 kmh 30.36 in1028.1 mb 0.00 in0.0 mm 0.00 in0.0 mm 0.00 in0.0 mm
05:53 AM 51.2°F10.7°C 42.7°F5.9°C 57% 7.9 mph SE12.7 kmh SE 8.0 mph12.9 kmh 30.36 in1028.1 mb 0.00 in0.0 mm 0.00 in0.0 mm 0.00 in0.0 mm
05:50 AM 51.1°F10.6°C 42.5°F5.8°C 57% 5.2 mph SE8.4 kmh SE 5.2 mph8.4 kmh 30.36 in1028.1 mb 0.00 in0.0 mm 0.00 in0.0 mm 0.00 in0.0 mm
05:47 AM 50.8°F10.4°C 42.3°F5.7°C 58% 4.4 mph ESE7.1 kmh ESE 4.5 mph7.2 kmh 30.36 in1028.1 mb 0.00 in0.0 mm 0.00 in0.0 mm 0.00 in0.0 mm
05:44 AM 50.7°F10.4°C 42.6°F5.9°C 59% 4.8 mph NNW7.7 kmh NNW 4.8 mph7.7 kmh 30.36 in1028.1 mb 0.00 in0.0 mm 0.00 in0.0 mm 0.00 in0.0 mm
05:41 AM 50.6°F10.3°C 42.6°F5.9°C 59% 8.3 mph ESE13.4 kmh ESE 8.3 mph13.4 kmh 30.36 in1028.1 mb 0.00 in0.0 mm 0.00 in0.0 mm 0.00 in0.0 mm
05:38 AM 50.6°F10.3°C 42.7°F5.9°C 60% 7.2 mph SE11.6 kmh SE 7.3 mph11.7 kmh 30.36 in1028.1 mb 0.00 in0.0 mm 0.00 in0.0 mm 0.00 in0.0 mm
05:35 AM 50.7°F10.4°C 42.5°F5.8°C 59% 7.8 mph SE12.6 kmh SE 7.8 mph12.6 kmh 30.36 in1028.1 mb 0.00 in0.0 mm 0.00 in0.0 mm 0.00 in0.0 mm
05:32 AM 50.8°F10.4°C 42.5°F5.8°C 59% 8.7 mph E14.0 kmh E 8.8 mph14.2 kmh 30.36 in1028.1 mb 0.00 in0.0 mm 0.00 in0.0 mm 0.00 in0.0 mm
05:29 AM 50.5°F10.3°C 42.4°F5.8°C 59% 7.3 mph SE11.7 kmh SE 7.3 mph11.7 kmh 30.36 in1028.1 mb 0.00 in0.0 mm 0.00 in0.0 mm 0.00 in0.0 mm
05:26 AM 50.2°F10.1°C 42.5°F5.8°C 60% 5.7 mph SE9.2 kmh SE 5.7 mph9.2 kmh 30.36 in1028.1 mb 0.00 in0.0 mm 0.00 in0.0 mm 0.00 in0.0 mm
05:23 AM 50.2°F10.1°C 42.1°F5.6°C 59% 8.1 mph ESE13.0 kmh ESE 8.1 mph13.0 kmh 30.36 in1028.1 mb 0.00 in0.0 mm 0.00 in0.0 mm 0.00 in0.0 mm
05:20 AM 50.2°F10.1°C 42.2°F5.7°C 60% 6.4 mph ESE10.3 kmh ESE 6.4 mph10.3 kmh 30.36 in1028.1 mb 0.00 in0.0 mm 0.00 in0.0 mm 0.00 in0.0 mm
05:17 AM 50.6°F10.3°C 42.0°F5.6°C 60% 7.3 mph SE11.7 kmh SE 7.4 mph11.9 kmh 30.36 in1028.1 mb 0.00 in0.0 mm 0.00 in0.0 mm 0.00 in0.0 mm
05:14 AM 49.2°F9.6°C 42.2°F5.7°C 60% 5.2 mph SE8.4 kmh SE 5.2 mph8.4 kmh 30.36 in1028.1 mb 0.00 in0.0 mm 0.00 in0.0 mm 0.00 in0.0 mm
05:11 AM 48.9°F9.4°C 42.0°F5.6°C 60% 4.6 mph S7.4 kmh S 4.6 mph7.4 kmh 30.36 in1028.1 mb 0.00 in0.0 mm 0.00 in0.0 mm 0.00 in0.0 mm
05:08 AM 49.0°F9.4°C 42.0°F5.6°C 60% 4.9 mph SE7.9 kmh SE 4.9 mph7.9 kmh 30.36 in1028.1 mb 0.00 in0.0 mm 0.00 in0.0 mm 0.00 in0.0 mm
05:05 AM 48.5°F9.2°C 42.1°F5.6°C 59% 3.8 mph SE6.1 kmh SE 3.8 mph6.1 kmh 30.36 in1028.1 mb 0.00 in0.0 mm 0.00 in0.0 mm 0.00 in0.0 mm
05:02 AM 48.4°F9.1°C 42.1°F5.6°C 59% 2.7 mph SSE4.3 kmh SSE 2.8 mph4.5 kmh 30.36 in1028.1 mb 0.00 in0.0 mm 0.00 in0.0 mm 0.00 in0.0 mm
04:59 AM 48.8°F9.3°C 42.4°F5.8°C 59% 4.8 mph SE7.7 kmh SE 4.8 mph7.7 kmh 30.35 in1027.8 mb 0.00 in0.0 mm 0.00 in0.0 mm 0.00 in0.0 mm
04:56 AM 49.1°F9.5°C 42.5°F5.8°C 59% 4.8 mph SE7.7 kmh SE 4.8 mph7.7 kmh 30.35 in1027.8 mb 0.00 in0.0 mm 0.00 in0.0 mm 0.00 in0.0 mm
04:53 AM 49.2°F9.6°C 41.7°F5.4°C 57% 4.4 mph NNW7.1 kmh NNW 4.5 mph7.2 kmh 30.35 in1027.8 mb 0.00 in0.0 mm 0.00 in0.0 mm 0.00 in0.0 mm
04:50 AM 49.6°F9.8°C 42.1°F5.6°C 58% 6.5 mph ESE10.5 kmh ESE 6.5 mph10.5 kmh 30.35 in1027.8 mb 0.00 in0.0 mm 0.00 in0.0 mm 0.00 in0.0 mm
04:47 AM 49.7°F9.8°C 42.2°F5.7°C 58% 4.8 mph SE7.7 kmh SE 4.9 mph7.9 kmh 30.35 in1027.8 mb 0.00 in0.0 mm 0.00 in0.0 mm 0.00 in0.0 mm
04:44 AM 50.1°F10.1°C 42.1°F5.6°C 58% 4.4 mph SE7.1 kmh SE 4.5 mph7.2 kmh 30.35 in1027.8 mb 0.00 in0.0 mm 0.00 in0.0 mm 0.00 in0.0 mm
04:41 AM 50.0°F10.0°C 42.2°F5.7°C 58% 7.5 mph ESE12.1 kmh ESE 7.5 mph12.1 kmh 30.35 in1027.8 mb 0.00 in0.0 mm 0.00 in0.0 mm 0.00 in0.0 mm
04:38 AM 50.9°F10.5°C 41.9°F5.5°C 57% 9.6 mph ESE15.4 kmh ESE 9.9 mph15.9 kmh 30.35 in1027.8 mb 0.00 in0.0 mm 0.00 in0.0 mm 0.00 in0.0 mm
04:35 AM 50.9°F10.5°C 41.9°F5.5°C 57% 9.0 mph ESE14.5 kmh ESE 9.0 mph14.5 kmh 30.35 in1027.8 mb 0.00 in0.0 mm 0.00 in0.0 mm 0.00 in0.0 mm
04:32 AM 51.0°F10.6°C 41.9°F5.5°C 57% 7.6 mph ESE12.2 kmh ESE 7.7 mph12.4 kmh 30.36 in1028.1 mb 0.00 in0.0 mm 0.00 in0.0 mm 0.00 in0.0 mm
04:29 AM 50.1°F10.1°C 42.2°F5.7°C 59% 8.1 mph ESE13.0 kmh ESE 8.1 mph13.0 kmh 30.35 in1027.8 mb 0.00 in0.0 mm 0.00 in0.0 mm 0.00 in0.0 mm
04:26 AM 49.9°F9.9°C 42.3°F5.7°C 59% 9.3 mph E15.0 kmh E 9.4 mph15.1 kmh 30.35 in1027.8 mb 0.00 in0.0 mm 0.00 in0.0 mm 0.00 in0.0 mm
04:23 AM 49.9°F9.9°C 42.3°F5.7°C 58% 6.5 mph SE10.5 kmh SE 6.5 mph10.5 kmh 30.35 in1027.8 mb 0.00 in0.0 mm 0.00 in0.0 mm 0.00 in0.0 mm
04:20 AM 50.1°F10.1°C 41.6°F5.3°C 58% 7.3 mph ESE11.7 kmh ESE 7.4 mph11.9 kmh 30.35 in1027.8 mb 0.00 in0.0 mm 0.00 in0.0 mm 0.00 in0.0 mm
04:17 AM 49.2°F9.6°C 42.2°F5.7°C 59% 5.3 mph ESE8.5 kmh ESE 5.3 mph8.5 kmh 30.35 in1027.8 mb 0.00 in0.0 mm 0.00 in0.0 mm 0.00 in0.0 mm
04:14 AM 49.0°F9.4°C 42.1°F5.6°C 59% 8.4 mph NNW13.5 kmh NNW 8.4 mph13.5 kmh 30.35 in1027.8 mb 0.00 in0.0 mm 0.00 in0.0 mm 0.00 in0.0 mm
04:11 AM 49.0°F9.4°C 41.8°F5.4°C 58% 6.1 mph NNW9.8 kmh NNW 6.1 mph9.8 kmh 30.34 in1027.4 mb 0.00 in0.0 mm 0.00 in0.0 mm 0.00 in0.0 mm
04:08 AM 49.2°F9.6°C 42.0°F5.6°C 58% 5.8 mph ESE9.3 kmh ESE 5.8 mph9.3 kmh 30.34 in1027.4 mb 0.00 in0.0 mm 0.00 in0.0 mm 0.00 in0.0 mm
04:05 AM 49.6°F9.8°C 42.1°F5.6°C 58% 4.4 mph SSE7.1 kmh SSE 4.4 mph7.1 kmh 30.35 in1027.8 mb 0.00 in0.0 mm 0.00 in0.0 mm 0.00 in0.0 mm
04:02 AM 49.8°F9.9°C 41.7°F5.4°C 57% 6.8 mph NNW10.9 kmh NNW 6.9 mph11.1 kmh 30.34 in1027.4 mb 0.00 in0.0 mm 0.00 in0.0 mm 0.00 in0.0 mm
03:59 AM 50.3°F10.2°C 41.6°F5.3°C 57% 8.1 mph SE13.0 kmh SE 8.1 mph13.0 kmh 30.34 in1027.4 mb 0.00 in0.0 mm 0.00 in0.0 mm 0.00 in0.0 mm
03:56 AM 49.4°F9.7°C 42.1°F5.6°C 57% 6.8 mph SE10.9 kmh SE 6.9 mph11.1 kmh 30.34 in1027.4 mb 0.00 in0.0 mm 0.00 in0.0 mm 0.00 in0.0 mm
03:53 AM 50.8°F10.4°C 41.9°F5.5°C 57% 4.6 mph SE7.4 kmh SE 4.6 mph7.4 kmh 30.34 in1027.4 mb 0.00 in0.0 mm 0.00 in0.0 mm 0.00 in0.0 mm
03:50 AM 49.8°F9.9°C 42.3°F5.7°C 58% 4.0 mph NNW6.4 kmh NNW 4.0 mph6.4 kmh 30.34 in1027.4 mb 0.00 in0.0 mm 0.00 in0.0 mm 0.00 in0.0 mm
03:47 AM 50.2°F10.1°C 41.9°F5.5°C 57% 7.1 mph SE11.4 kmh SE 7.2 mph11.6 kmh 30.34 in1027.4 mb 0.00 in0.0 mm 0.00 in0.0 mm 0.00 in0.0 mm
03:44 AM 50.2°F10.1°C 42.0°F5.6°C 58% 6.8 mph SE10.9 kmh SE 6.9 mph11.1 kmh 30.34 in1027.4 mb 0.00 in0.0 mm 0.00 in0.0 mm 0.00 in0.0 mm
03:41 AM 49.9°F9.9°C 41.7°F5.4°C 58% 8.4 mph SE13.5 kmh SE 8.4 mph13.5 kmh 30.34 in1027.4 mb 0.00 in0.0 mm 0.00 in0.0 mm 0.00 in0.0 mm
03:38 AM 50.0°F10.0°C 41.9°F5.5°C 58% 8.0 mph SE12.9 kmh SE 8.0 mph12.9 kmh 30.34 in1027.4 mb 0.00 in0.0 mm 0.00 in0.0 mm 0.00 in0.0 mm
03:35 AM 49.4°F9.7°C 41.4°F5.2°C 58% 9.3 mph NNW15.0 kmh NNW 9.3 mph15.0 kmh 30.34 in1027.4 mb 0.00 in0.0 mm 0.00 in0.0 mm 0.00 in0.0 mm
03:32 AM 50.1°F10.1°C 41.4°F5.2°C 58% 4.6 mph SE7.4 kmh SE 4.7 mph7.6 kmh 30.34 in1027.4 mb 0.00 in0.0 mm 0.00 in0.0 mm 0.00 in0.0 mm
03:29 AM 49.2°F9.6°C 41.8°F5.4°C 59% 9.7 mph SE15.6 kmh SE 9.7 mph15.6 kmh 30.34 in1027.4 mb 0.00 in0.0 mm 0.00 in0.0 mm 0.00 in0.0 mm
03:26 AM 48.7°F9.3°C 41.9°F5.5°C 59% 5.2 mph NNW8.4 kmh NNW 5.2 mph8.4 kmh 30.34 in1027.4 mb 0.00 in0.0 mm 0.00 in0.0 mm 0.00 in0.0 mm
03:23 AM 49.2°F9.6°C 41.6°F5.3°C 59% 9.3 mph ESE15.0 kmh ESE 9.3 mph15.0 kmh 30.34 in1027.4 mb 0.00 in0.0 mm 0.00 in0.0 mm 0.00 in0.0 mm
03:20 AM 47.6°F8.7°C 41.9°F5.5°C 59% 9.1 mph ESE14.6 kmh ESE 9.2 mph14.8 kmh 30.34 in1027.4 mb 0.00 in0.0 mm 0.00 in0.0 mm 0.00 in0.0 mm
03:17 AM 48.3°F9.1°C 41.8°F5.4°C 59% 4.8 mph SE7.7 kmh SE 4.9 mph7.9 kmh 30.34 in1027.4 mb 0.00 in0.0 mm 0.00 in0.0 mm 0.00 in0.0 mm
03:14 AM 48.5°F9.2°C 41.5°F5.3°C 58% 7.0 mph ESE11.3 kmh ESE 7.0 mph11.3 kmh 30.34 in1027.4 mb 0.00 in0.0 mm 0.00 in0.0 mm 0.00 in0.0 mm
03:11 AM 48.5°F9.2°C 41.8°F5.4°C 58% 4.2 mph NNW6.8 kmh NNW 4.2 mph6.8 kmh 30.34 in1027.4 mb 0.00 in0.0 mm 0.00 in0.0 mm 0.00 in0.0 mm
03:08 AM 47.8°F8.8°C 41.6°F5.3°C 58% 6.9 mph SE11.1 kmh SE 7.0 mph11.3 kmh 30.34 in1027.4 mb 0.00 in0.0 mm 0.00 in0.0 mm 0.00 in0.0 mm
03:05 AM 48.3°F9.1°C 41.5°F5.3°C 57% 6.9 mph SE11.1 kmh SE 7.0 mph11.3 kmh 30.34 in1027.4 mb 0.00 in0.0 mm 0.00 in0.0 mm 0.00 in0.0 mm
03:02 AM 47.1°F8.4°C 42.0°F5.6°C 58% 2.3 mph NNW3.7 kmh NNW 2.5 mph4.0 kmh 30.34 in1027.4 mb 0.00 in0.0 mm 0.00 in0.0 mm 0.00 in0.0 mm
02:59 AM 48.3°F9.1°C 41.7°F5.4°C 58% 4.8 mph ESE7.7 kmh ESE 4.8 mph7.7 kmh 30.34 in1027.4 mb 0.00 in0.0 mm 0.00 in0.0 mm 0.00 in0.0 mm
02:56 AM 48.3°F9.1°C 41.8°F5.4°C 57% 4.0 mph ESE6.4 kmh ESE 4.0 mph6.4 kmh 30.34 in1027.4 mb 0.00 in0.0 mm 0.00 in0.0 mm 0.00 in0.0 mm
02:53 AM 48.9°F9.4°C 41.6°F5.3°C 57% 3.6 mph NNW5.8 kmh NNW 3.7 mph6.0 kmh 30.34 in1027.4 mb 0.00 in0.0 mm 0.00 in0.0 mm 0.00 in0.0 mm
02:50 AM 49.1°F9.5°C 41.8°F5.4°C 57% 4.0 mph SE6.4 kmh SE 4.0 mph6.4 kmh 30.34 in1027.4 mb 0.00 in0.0 mm 0.00 in0.0 mm 0.00 in0.0 mm
02:47 AM 49.2°F9.6°C 41.3°F5.2°C 56% 5.2 mph SE8.4 kmh SE 5.2 mph8.4 kmh 30.34 in1027.4 mb 0.00 in0.0 mm 0.00 in0.0 mm 0.00 in0.0 mm
02:44 AM 49.0°F9.4°C 41.9°F5.5°C 57% 2.8 mph SE4.5 kmh SE 2.8 mph4.5 kmh 30.34 in1027.4 mb 0.00 in0.0 mm 0.00 in0.0 mm 0.00 in0.0 mm
02:41 AM 49.1°F9.5°C 42.0°F5.6°C 57% 7.3 mph ESE11.7 kmh ESE 7.3 mph11.7 kmh 30.34 in1027.4 mb 0.00 in0.0 mm 0.00 in0.0 mm 0.00 in0.0 mm
02:38 AM 49.7°F9.8°C 41.4°F5.2°C 57% 3.6 mph SE5.8 kmh SE 3.7 mph6.0 kmh 30.34 in1027.4 mb 0.00 in0.0 mm 0.00 in0.0 mm 0.00 in0.0 mm
02:35 AM 48.4°F9.1°C 41.8°F5.4°C 57% 5.3 mph E8.5 kmh E 5.3 mph8.5 kmh 30.34 in1027.4 mb 0.00 in0.0 mm 0.00 in0.0 mm 0.00 in0.0 mm
02:32 AM 48.9°F9.4°C 41.9°F5.5°C 57% 5.3 mph SE8.5 kmh SE 5.3 mph8.5 kmh 30.34 in1027.4 mb 0.00 in0.0 mm 0.00 in0.0 mm 0.00 in0.0 mm
02:29 AM 48.3°F9.1°C 41.4°F5.2°C 57% 5.7 mph SE9.2 kmh SE 5.7 mph9.2 kmh 30.34 in1027.4 mb 0.00 in0.0 mm 0.00 in0.0 mm 0.00 in0.0 mm
02:26 AM 47.1°F8.4°C 41.8°F5.4°C 57% 1.9 mph NNW3.1 kmh NNW 1.9 mph3.1 kmh 30.34 in1027.4 mb 0.00 in0.0 mm 0.00 in0.0 mm 0.00 in0.0 mm
02:23 AM 48.1°F8.9°C 41.7°F5.4°C 56% 3.0 mph SE4.8 kmh SE 3.0 mph4.8 kmh 30.34 in1027.4 mb 0.00 in0.0 mm 0.00 in0.0 mm 0.00 in0.0 mm
02:20 AM 48.9°F9.4°C 41.7°F5.4°C 56% 2.4 mph NNW3.9 kmh NNW 2.4 mph3.9 kmh 30.34 in1027.4 mb 0.00 in0.0 mm 0.00 in0.0 mm 0.00 in0.0 mm
02:17 AM 49.0°F9.4°C 41.9°F5.5°C 56% 4.0 mph SE6.4 kmh SE 4.0 mph6.4 kmh 30.34 in1027.4 mb 0.00 in0.0 mm 0.00 in0.0 mm 0.00 in0.0 mm
02:14 AM 48.3°F9.1°C 41.7°F5.4°C 56% 2.8 mph SE4.5 kmh SE 2.8 mph4.5 kmh 30.34 in1027.4 mb 0.00 in0.0 mm 0.00 in0.0 mm 0.00 in0.0 mm
02:11 AM 48.7°F9.3°C 42.0°F5.6°C 56% 3.2 mph NNW5.1 kmh NNW 3.3 mph5.3 kmh 30.34 in1027.4 mb 0.00 in0.0 mm 0.00 in0.0 mm 0.00 in0.0 mm
02:08 AM 49.4°F9.7°C 41.9°F5.5°C 56% 4.0 mph NNW6.4 kmh NNW 4.1 mph6.6 kmh 30.34 in1027.4 mb 0.00 in0.0 mm 0.00 in0.0 mm 0.00 in0.0 mm
02:05 AM 49.7°F9.8°C 41.6°F5.3°C 56% 3.6 mph SE5.8 kmh SE 3.7 mph6.0 kmh 30.34 in1027.4 mb 0.00 in0.0 mm 0.00 in0.0 mm 0.00 in0.0 mm
02:02 AM 49.6°F9.8°C 41.7°F5.4°C 56% 3.2 mph ESE5.1 kmh ESE 3.2 mph5.1 kmh 30.34 in1027.4 mb 0.00 in0.0 mm 0.00 in0.0 mm 0.00 in0.0 mm
01:59 AM 49.2°F9.6°C 42.0°F5.6°C 56% 4.9 mph ESE7.9 kmh ESE 4.9 mph7.9 kmh 30.34 in1027.4 mb 0.00 in0.0 mm 0.00 in0.0 mm 0.00 in0.0 mm
01:56 AM 49.2°F9.6°C 41.9°F5.5°C 56% 2.4 mph NNW3.9 kmh NNW 2.4 mph3.9 kmh 30.34 in1027.4 mb 0.00 in0.0 mm 0.00 in0.0 mm 0.00 in0.0 mm
01:53 AM 49.3°F9.6°C 41.9°F5.5°C 57% 5.2 mph SE8.4 kmh SE 5.3 mph8.5 kmh 30.34 in1027.4 mb 0.00 in0.0 mm 0.00 in0.0 mm 0.00 in0.0 mm
01:50 AM 49.0°F9.4°C 41.8°F5.4°C 57% 5.2 mph SE8.4 kmh SE 5.2 mph8.4 kmh 30.34 in1027.4 mb 0.00 in0.0 mm 0.00 in0.0 mm 0.00 in0.0 mm
01:47 AM 48.1°F8.9°C 41.9°F5.5°C 57% 6.5 mph SE10.5 kmh SE 6.6 mph10.6 kmh 30.34 in1027.4 mb 0.00 in0.0 mm 0.00 in0.0 mm 0.00 in0.0 mm
01:44 AM 48.1°F8.9°C 41.9°F5.5°C 57% 4.6 mph SE7.4 kmh SE 4.6 mph7.4 kmh 30.34 in1027.4 mb 0.00 in0.0 mm 0.00 in0.0 mm 0.00 in0.0 mm
01:41 AM 47.3°F8.5°C 41.9°F5.5°C 56% 3.4 mph SE5.5 kmh SE 3.6 mph5.8 kmh 30.34 in1027.4 mb 0.00 in0.0 mm 0.00 in0.0 mm 0.00 in0.0 mm
01:38 AM 47.9°F8.8°C 41.9°F5.5°C 55% 3.4 mph SE5.5 kmh SE 3.7 mph6.0 kmh 30.34 in1027.4 mb 0.00 in0.0 mm 0.00 in0.0 mm 0.00 in0.0 mm
01:35 AM 48.1°F8.9°C 41.8°F5.4°C 55% 3.1 mph ESE5.0 kmh ESE 3.1 mph5.0 kmh 30.34 in1027.4 mb 0.00 in0.0 mm 0.00 in0.0 mm 0.00 in0.0 mm
01:32 AM 49.0°F9.4°C 41.9°F5.5°C 55% 3.5 mph SE5.6 kmh SE 3.6 mph5.8 kmh 30.34 in1027.4 mb 0.00 in0.0 mm 0.00 in0.0 mm 0.00 in0.0 mm
01:29 AM 49.4°F9.7°C 41.9°F5.5°C 54% 5.6 mph ESE9.0 kmh ESE 5.6 mph9.0 kmh 30.34 in1027.4 mb 0.00 in0.0 mm 0.00 in0.0 mm 0.00 in0.0 mm
01:26 AM 50.6°F10.3°C 41.7°F5.4°C 54% 4.4 mph SE7.1 kmh SE 4.4 mph7.1 kmh 30.34 in1027.4 mb 0.00 in0.0 mm 0.00 in0.0 mm 0.00 in0.0 mm
01:23 AM 50.1°F10.1°C 41.8°F5.4°C 54% 2.8 mph E4.5 kmh E 2.9 mph4.7 kmh 30.34 in1027.4 mb 0.00 in0.0 mm 0.00 in0.0 mm 0.00 in0.0 mm
01:20 AM 50.0°F10.0°C 41.8°F5.4°C 54% 2.4 mph NNW3.9 kmh NNW 2.4 mph3.9 kmh 30.34 in1027.4 mb 0.00 in0.0 mm 0.00 in0.0 mm 0.00 in0.0 mm
01:17 AM 50.7°F10.4°C 41.8°F5.4°C 54% 2.7 mph NNW4.3 kmh NNW 2.7 mph4.3 kmh 30.34 in1027.4 mb 0.00 in0.0 mm 0.00 in0.0 mm 0.00 in0.0 mm
01:14 AM 50.6°F10.3°C 41.9°F5.5°C 54% 5.0 mph ESE8.0 kmh ESE 5.0 mph8.0 kmh 30.34 in1027.4 mb 0.00 in0.0 mm 0.00 in0.0 mm 0.00 in0.0 mm
01:11 AM 50.0°F10.0°C 42.1°F5.6°C 55% 5.3 mph ESE8.5 kmh ESE 5.3 mph8.5 kmh 30.34 in1027.4 mb 0.00 in0.0 mm 0.00 in0.0 mm 0.00 in0.0 mm
01:08 AM 50.2°F10.1°C 42.1°F5.6°C 55% 6.9 mph ESE11.1 kmh ESE 7.0 mph11.3 kmh 30.34 in1027.4 mb 0.00 in0.0 mm 0.00 in0.0 mm 0.00 in0.0 mm
01:05 AM 50.2°F10.1°C 42.2°F5.7°C 55% 3.1 mph SSE5.0 kmh SSE 3.1 mph5.0 kmh 30.34 in1027.4 mb 0.00 in0.0 mm 0.00 in0.0 mm 0.00 in0.0 mm
01:02 AM 50.5°F10.3°C 42.0°F5.6°C 55% 6.2 mph NNW10.0 kmh NNW 6.3 mph10.1 kmh 30.34 in1027.4 mb 0.00 in0.0 mm 0.00 in0.0 mm 0.00 in0.0 mm
12:59 AM 51.4°F10.8°C 41.6°F5.3°C 54% 4.0 mph SE6.4 kmh SE 4.0 mph6.4 kmh 30.34 in1027.4 mb 0.00 in0.0 mm 0.00 in0.0 mm 0.00 in0.0 mm
12:56 AM 50.2°F10.1°C 42.0°F5.6°C 55% 4.9 mph SE7.9 kmh SE 4.9 mph7.9 kmh 30.34 in1027.4 mb 0.00 in0.0 mm 0.00 in0.0 mm 0.00 in0.0 mm
12:53 AM 50.5°F10.3°C 42.3°F5.7°C 55% 5.0 mph NNW8.0 kmh NNW 5.0 mph8.0 kmh 30.34 in1027.4 mb 0.00 in0.0 mm 0.00 in0.0 mm 0.00 in0.0 mm
12:50 AM 50.0°F10.0°C 41.9°F5.5°C 55% 5.7 mph NNW9.2 kmh NNW 5.7 mph9.2 kmh 30.34 in1027.4 mb 0.00 in0.0 mm 0.00 in0.0 mm 0.00 in0.0 mm
12:47 AM 50.5°F10.3°C 42.0°F5.6°C 55% 6.3 mph SE10.1 kmh SE 6.3 mph10.1 kmh 30.34 in1027.4 mb 0.00 in0.0 mm 0.00 in0.0 mm 0.00 in0.0 mm
12:44 AM 49.9°F9.9°C 42.1°F5.6°C 56% 6.5 mph SE10.5 kmh SE 6.6 mph10.6 kmh 30.34 in1027.4 mb 0.00 in0.0 mm 0.00 in0.0 mm 0.00 in0.0 mm
12:41 AM 49.2°F9.6°C 42.2°F5.7°C 55% 5.1 mph SE8.2 kmh SE 5.2 mph8.4 kmh 30.34 in1027.4 mb 0.00 in0.0 mm 0.00 in0.0 mm 0.00 in0.0 mm
12:38 AM 49.3°F9.6°C 42.0°F5.6°C 55% 5.7 mph SE9.2 kmh SE 5.7 mph9.2 kmh 30.34 in1027.4 mb 0.00 in0.0 mm 0.00 in0.0 mm 0.00 in0.0 mm
12:35 AM 50.1°F10.1°C 42.2°F5.7°C 55% 6.0 mph ESE9.7 kmh ESE 6.0 mph9.7 kmh 30.34 in1027.4 mb 0.00 in0.0 mm 0.00 in0.0 mm 0.00 in0.0 mm
12:32 AM 50.6°F10.3°C 41.8°F5.4°C 53% 3.6 mph SE5.8 kmh SE 3.6 mph5.8 kmh 30.34 in1027.4 mb 0.00 in0.0 mm 0.00 in0.0 mm 0.00 in0.0 mm
12:29 AM 50.3°F10.2°C 42.1°F5.6°C 54% 8.5 mph ESE13.7 kmh ESE 8.6 mph13.8 kmh 30.34 in1027.4 mb 0.00 in0.0 mm 0.00 in0.0 mm 0.00 in0.0 mm
12:26 AM 50.5°F10.3°C 42.0°F5.6°C 53% 4.4 mph ESE7.1 kmh ESE 4.4 mph7.1 kmh 30.34 in1027.4 mb 0.00 in0.0 mm 0.00 in0.0 mm 0.00 in0.0 mm
12:23 AM 51.2°F10.7°C 41.9°F5.5°C 53% 4.8 mph SSE7.7 kmh SSE 4.8 mph7.7 kmh 30.34 in1027.4 mb 0.00 in0.0 mm 0.00 in0.0 mm 0.00 in0.0 mm
12:20 AM 51.1°F10.6°C 42.2°F5.7°C 53% 6.1 mph SE9.8 kmh SE 6.2 mph10.0 kmh 30.34 in1027.4 mb 0.00 in0.0 mm 0.00 in0.0 mm 0.00 in0.0 mm
12:17 AM 51.4°F10.8°C 42.3°F5.7°C 53% 4.6 mph SE7.4 kmh SE 4.7 mph7.6 kmh 30.34 in1027.4 mb 0.00 in0.0 mm 0.00 in0.0 mm 0.00 in0.0 mm
12:14 AM 51.7°F10.9°C 42.5°F5.8°C 53% 6.2 mph ESE10.0 kmh ESE 6.2 mph10.0 kmh 30.34 in1027.4 mb 0.00 in0.0 mm 0.00 in0.0 mm 0.00 in0.0 mm
12:11 AM 51.9°F11.1°C 42.0°F5.6°C 53% 6.8 mph SE10.9 kmh SE 6.9 mph11.1 kmh 30.34 in1027.4 mb 0.00 in0.0 mm 0.00 in0.0 mm 0.00 in0.0 mm
12:08 AM 51.9°F11.1°C 42.0°F5.6°C 53% 7.3 mph ESE11.7 kmh ESE 7.4 mph11.9 kmh 30.34 in1027.4 mb 0.00 in0.0 mm 0.00 in0.0 mm 0.00 in0.0 mm
12:05 AM 51.7°F10.9°C 42.1°F5.6°C 52% 6.0 mph SE9.7 kmh SE 6.0 mph9.7 kmh 30.34 in1027.4 mb 0.00 in0.0 mm 0.00 in0.0 mm 0.00 in0.0 mm
12:02 AM 52.1°F11.2°C 42.1°F5.6°C 52% 4.4 mph NNW7.1 kmh NNW 4.4 mph7.1 kmh 30.34 in1027.4 mb 0.00 in0.0 mm 0.00 in0.0 mm 0.00 in0.0 mm